METAR Data
IDs: Format: Raw Decoded Include TAF

Data at: 0612 UTC 03 Jul 2022

METAR for:KHUF (Terre Haute/Hulman F, IN, US)
Text:KHUF 030553Z 05006KT 10SM CLR 22/13 A3006 RMK AO2 SLP173 T02220133 10256 20217 58001
Temperature: 22.2°C ( 72°F)
Dewpoint: 13.3°C ( 56°F) [RH = 57%]
Pressure (altimeter):30.06 inches Hg (1018.0 mb) [Sea level pressure: 1017.3 mb]
Winds:from the NE (50 degrees) at 7 MPH (6 knots; 3.1 m/s)
Visibility:10 or more sm (16+ km)
Ceiling:at least 12,000 feet AGL
Clouds:sky clear below 12,000 feet AGL

TAF for:KHUF (Terre Haute/Hulman F, IN, US) issued at 0610 UTC 03 Jul 2022
Text:KHUF 030610Z 0306/0406 VRB03KT P6SM BKN150
Forecast period:0600 UTC 03 July 2022 to 0600 UTC 04 July 2022
Forecast type:FROM: standard forecast or significant change
Winds:variable direction winds at 3 MPH (3 knots; 1.5 m/s)
Visibility:6 or more sm (10+ km)
Ceiling:15000 feet AGL
Clouds: broken clouds at 15000 feet AGL